K21 EFJY-EFJY

Flight info

Callsign K21
Flight time 0h 29m
Altitude 1200
Route TC
Aircraft G115/L-SDGR/C

Departure

Time 2026-05-04 13:18
Airport Jyväskylä Airport (EFJY)

Arrival

Time 2026-05-04 13:48
Airport Jyväskylä Airport (EFJY)
Time Latitude Longitude Altitude Speed Heading
2026-05-04 13:03 62.40189 25.65669 490 ft 0 kts 53°
2026-05-04 13:12 62.40193 25.65680 462 ft 4 kts 57°
2026-05-04 13:12 62.40196 25.65698 461 ft 2 kts 75°
2026-05-04 13:12 62.40199 25.65755 460 ft 2 kts 39°
2026-05-04 13:13 62.40228 25.65819 459 ft 10 kts 45°
2026-05-04 13:13 62.40298 25.65960 459 ft 17 kts 42°
2026-05-04 13:13 62.40387 25.66146 461 ft 9 kts 39°
2026-05-04 13:13 62.40387 25.66261 462 ft 11 kts 141°
2026-05-04 13:14 62.40349 25.66333 463 ft 0 kts 134°
2026-05-04 13:14 62.40363 25.66347 463 ft 11 kts 317°
2026-05-04 13:14 62.40423 25.66228 462 ft 10 kts 17°
2026-05-04 13:14 62.40470 25.66322 461 ft 0 kts 46°
2026-05-04 13:16 62.40482 25.66347 461 ft 11 kts 43°
2026-05-04 13:16 62.40520 25.66493 460 ft 10 kts 122°
2026-05-04 13:17 62.40473 25.66637 461 ft 12 kts 124°
2026-05-04 13:17 62.40459 25.66675 461 ft 0 kts 136°
2026-05-04 13:17 62.40384 25.66827 462 ft 41 kts 131°
2026-05-04 13:17 62.40089 25.67520 502 ft 74 kts 131°
2026-05-04 13:18 62.39762 25.68368 700 ft 73 kts 138°
2026-05-04 13:18 62.39438 25.69257 843 ft 80 kts 137°
2026-05-04 13:18 62.39035 25.70119 1021 ft 85 kts 144°
2026-05-04 13:18 62.38605 25.71047 1219 ft 90 kts 139°
2026-05-04 13:19 62.38145 25.72094 1349 ft 108 kts 138°
2026-05-04 13:19 62.37786 25.72961 1321 ft 121 kts 135°
2026-05-04 13:19 62.37351 25.75340 1157 ft 142 kts 108°
2026-05-04 13:19 62.37134 25.77336 1122 ft 133 kts 105°
2026-05-04 13:20 62.36761 25.78943 1145 ft 114 kts 142°
2026-05-04 13:20 62.36087 25.79666 1091 ft 105 kts 179°
2026-05-04 13:20 62.35457 25.79136 1079 ft 98 kts 236°
2026-05-04 13:20 62.35522 25.77640 1034 ft 115 kts 295°
2026-05-04 13:21 62.36127 25.76441 1023 ft 117 kts 313°
2026-05-04 13:21 62.36690 25.75186 998 ft 119 kts 307°
2026-05-04 13:21 62.37264 25.73864 918 ft 122 kts 309°
2026-05-04 13:21 62.37828 25.72629 788 ft 108 kts 307°
2026-05-04 13:22 62.38305 25.71568 634 ft 93 kts 305°
2026-05-04 13:22 62.38721 25.70634 563 ft 85 kts 302°
2026-05-04 13:22 62.39126 25.69679 476 ft 87 kts 307°
2026-05-04 13:22 62.39494 25.68845 431 ft 65 kts 309°
2026-05-04 13:23 62.39773 25.68202 446 ft 63 kts 314°
2026-05-04 13:23 62.40126 25.67495 547 ft 74 kts 308°
2026-05-04 13:23 62.40509 25.66718 675 ft 75 kts 309°
2026-05-04 13:23 62.40872 25.65917 867 ft 74 kts 309°
2026-05-04 13:24 62.41258 25.65161 1038 ft 78 kts 310°
2026-05-04 13:24 62.41721 25.64377 1220 ft 93 kts 316°
2026-05-04 13:24 62.42070 25.63748 1251 ft 102 kts 301°
2026-05-04 13:25 62.41656 25.61578 1226 ft 90 kts 204°
2026-05-04 13:25 62.41065 25.61570 1233 ft 91 kts 156°
2026-05-04 13:25 62.40541 25.62464 1178 ft 101 kts 147°
2026-05-04 13:25 62.40041 25.63562 1181 ft 106 kts 140°
2026-05-04 13:26 62.39510 25.64667 1198 ft 105 kts 147°
2026-05-04 13:26 62.38975 25.65816 1213 ft 111 kts 137°
2026-05-04 13:26 62.38442 25.67088 1177 ft 113 kts 141°
2026-05-04 13:26 62.37952 25.68287 1098 ft 102 kts 141°
2026-05-04 13:27 62.37479 25.69398 987 ft 99 kts 136°
2026-05-04 13:27 62.37349 25.70701 837 ft 96 kts 62°
2026-05-04 13:27 62.37840 25.71508 739 ft 88 kts 27°
2026-05-04 13:27 62.38385 25.71389 645 ft 79 kts 317°
2026-05-04 13:28 62.38746 25.70573 552 ft 78 kts 303°
2026-05-04 13:28 62.39099 25.69740 477 ft 72 kts 303°
2026-05-04 13:28 62.39434 25.68975 426 ft 67 kts 306°
2026-05-04 13:28 62.39749 25.68266 449 ft 71 kts 316°
2026-05-04 13:29 62.40111 25.67510 571 ft 77 kts 308°
2026-05-04 13:29 62.40493 25.66671 746 ft 78 kts 306°
2026-05-04 13:29 62.40870 25.65811 940 ft 80 kts 310°
2026-05-04 13:29 62.41289 25.64950 1117 ft 87 kts 310°
2026-05-04 13:30 62.41754 25.64076 1366 ft 93 kts 310°
2026-05-04 13:30 62.42221 25.62864 1386 ft 105 kts 277°
2026-05-04 13:30 62.41938 25.61572 1403 ft 104 kts 216°
2026-05-04 13:30 62.41287 25.60683 1210 ft 115 kts 211°
2026-05-04 13:31 62.40542 25.60643 1190 ft 119 kts 148°
2026-05-04 13:31 62.39959 25.61984 1118 ft 123 kts 136°
2026-05-04 13:31 62.39421 25.63364 1082 ft 117 kts 137°
2026-05-04 13:31 62.38923 25.64727 1075 ft 113 kts 132°
2026-05-04 13:32 62.38473 25.66066 1083 ft 110 kts 135°
2026-05-04 13:32 62.37983 25.67299 1188 ft 108 kts 133°
2026-05-04 13:32 62.37505 25.68494 1287 ft 106 kts 134°
2026-05-04 13:32 62.37113 25.69852 1143 ft 100 kts 126°
2026-05-04 13:33 62.36952 25.71172 956 ft 97 kts 72°
2026-05-04 13:33 62.37447 25.72150 781 ft 96 kts 29°
2026-05-04 13:33 62.38039 25.72127 682 ft 80 kts 323°
2026-05-04 13:33 62.38424 25.71361 602 ft 75 kts 299°
2026-05-04 13:34 62.38765 25.70506 539 ft 76 kts 306°
2026-05-04 13:34 62.39129 25.69694 468 ft 71 kts 304°
2026-05-04 13:34 62.39427 25.69020 435 ft 56 kts 301°
2026-05-04 13:34 62.39701 25.68393 435 ft 59 kts 307°
2026-05-04 13:35 62.40021 25.67719 478 ft 74 kts 311°
2026-05-04 13:35 62.40832 25.66070 755 ft 83 kts 317°
2026-05-04 13:35 62.41304 25.65237 956 ft 91 kts 317°
2026-05-04 13:36 62.41805 25.64321 1167 ft 101 kts 313°
2026-05-04 13:36 62.42349 25.63231 1166 ft 111 kts 309°
2026-05-04 13:36 62.42506 25.61829 1206 ft 102 kts 236°
2026-05-04 13:36 62.41945 25.60854 1178 ft 106 kts 213°
2026-05-04 13:37 62.41311 25.60112 1175 ft 101 kts 209°
2026-05-04 13:37 62.40650 25.60309 1205 ft 111 kts 140°
2026-05-04 13:37 62.40184 25.61752 1126 ft 119 kts 134°
2026-05-04 13:37 62.39697 25.63171 1093 ft 116 kts 135°
2026-05-04 13:38 62.39209 25.64488 1093 ft 110 kts 134°
2026-05-04 13:38 62.38728 25.65743 1147 ft 108 kts 134°
2026-05-04 13:38 62.38271 25.67090 1169 ft 115 kts 129°
2026-05-04 13:38 62.37870 25.68548 1128 ft 113 kts 127°
2026-05-04 13:39 62.37461 25.70004 1002 ft 113 kts 127°
2026-05-04 13:39 62.37057 25.71416 948 ft 109 kts 125°
2026-05-04 13:39 62.36990 25.72875 944 ft 102 kts 54°
2026-05-04 13:39 62.37594 25.73537 859 ft 95 kts 333°
2026-05-04 13:40 62.37966 25.72542 781 ft 87 kts 294°
2026-05-04 13:40 62.38347 25.71479 649 ft 90 kts 307°
2026-05-04 13:40 62.38764 25.70505 572 ft 84 kts 306°
2026-05-04 13:40 62.39168 25.69592 474 ft 79 kts 308°
2026-05-04 13:41 62.39495 25.68860 428 ft 57 kts 304°
2026-05-04 13:41 62.39763 25.68270 468 ft 62 kts 306°
2026-05-04 13:41 62.40080 25.67543 589 ft 71 kts 308°
2026-05-04 13:42 62.40838 25.65972 970 ft 81 kts 310°
2026-05-04 13:42 62.41271 25.65099 1186 ft 90 kts 311°
2026-05-04 13:42 62.41745 25.64076 1222 ft 102 kts 308°
2026-05-04 13:42 62.42284 25.62997 1197 ft 108 kts 313°
2026-05-04 13:43 62.42660 25.61776 1262 ft 91 kts 256°
2026-05-04 13:43 62.42259 25.60777 1225 ft 95 kts 217°
2026-05-04 13:43 62.41687 25.59991 1136 ft 97 kts 211°
2026-05-04 13:43 62.41071 25.59696 1193 ft 98 kts 165°
2026-05-04 13:44 62.40573 25.60750 1245 ft 104 kts 135°
2026-05-04 13:44 62.40143 25.62007 1215 ft 105 kts 136°
2026-05-04 13:44 62.39693 25.63246 1202 ft 103 kts 138°
2026-05-04 13:44 62.39274 25.64414 1242 ft 96 kts 135°
2026-05-04 13:45 62.38861 25.65582 1237 ft 101 kts 134°
2026-05-04 13:45 62.38394 25.66762 1253 ft 106 kts 134°
2026-05-04 13:45 62.37937 25.68056 1208 ft 109 kts 133°
2026-05-04 13:45 62.37521 25.69411 1122 ft 109 kts 129°
2026-05-04 13:46 62.37101 25.70717 1044 ft 103 kts 130°
2026-05-04 13:46 62.36729 25.71969 1007 ft 96 kts 125°
2026-05-04 13:46 62.36487 25.73253 997 ft 96 kts 82°
2026-05-04 13:46 62.36962 25.74165 938 ft 97 kts 12°
2026-05-04 13:47 62.37478 25.73629 884 ft 84 kts 304°
2026-05-04 13:47 62.37825 25.72620 791 ft 86 kts 300°
2026-05-04 13:47 62.38235 25.71722 700 ft 82 kts 307°
2026-05-04 13:47 62.38616 25.70819 617 ft 79 kts 306°
2026-05-04 13:48 62.38994 25.69982 515 ft 74 kts 306°
2026-05-04 13:48 62.39330 25.69208 425 ft 66 kts 306°
2026-05-04 13:48 62.39603 25.68603 435 ft 48 kts 316°
2026-05-04 13:48 62.39795 25.68161 448 ft 34 kts 311°
2026-05-04 13:49 62.39943 25.67833 457 ft 28 kts 313°
2026-05-04 13:49 62.40056 25.67575 461 ft 15 kts 316°
2026-05-04 13:49 62.40052 25.67377 461 ft 15 kts 224°
2026-05-04 13:49 62.39989 25.67248 464 ft 10 kts 229°
2026-05-04 13:50 62.40004 25.67129 465 ft 10 kts 314°
2026-05-04 13:50 62.40061 25.66999 464 ft 13 kts 315°
2026-05-04 13:50 62.40134 25.66840 463 ft 16 kts 315°
2026-05-04 13:50 62.40217 25.66648 462 ft 18 kts 314°
2026-05-04 13:51 62.40308 25.66445 463 ft 19 kts 313°
2026-05-04 13:51 62.40396 25.66247 462 ft 9 kts 315°
2026-05-04 13:51 62.40381 25.66132 461 ft 11 kts 223°
2026-05-04 13:51 62.40317 25.65998 459 ft 14 kts 225°
2026-05-04 13:52 62.40174 25.65708 462 ft 10 kts 220°
2026-05-04 13:52 62.40158 25.65671 463 ft 1 kts 283°
2026-05-04 13:52 62.40186 25.65659 462 ft 7 kts 54°
2026-05-04 13:53 62.40189 25.65666 462 ft 0 kts 55°
2026-05-04 14:08 62.40189 25.65667 490 ft 1 kts 55°
2026-05-04 14:08 62.40203 25.65755 460 ft 12 kts 61°
2026-05-04 14:08 62.40282 25.65933 459 ft 21 kts 45°
2026-05-04 14:08 62.40378 25.66134 461 ft 13 kts 39°
2026-05-04 14:09 62.40302 25.66452 463 ft 20 kts 135°
2026-05-04 14:09 62.40191 25.66700 462 ft 25 kts 137°
2026-05-04 14:10 62.39984 25.67186 465 ft 13 kts 107°
2026-05-04 14:10 62.40046 25.67362 461 ft 18 kts 48°
2026-05-04 14:10 62.40113 25.67455 462 ft 7 kts 320°
2026-05-04 14:10 62.40115 25.67451 462 ft 0 kts 319°
2026-05-04 14:11 62.40185 25.67299 463 ft 41 kts 313°
2026-05-04 14:12 62.40487 25.66633 512 ft 73 kts 309°
2026-05-04 14:12 62.40845 25.65844 701 ft 72 kts 309°
2026-05-04 14:12 62.41606 25.64400 1099 ft 80 kts 315°
2026-05-04 14:13 62.42086 25.63551 1210 ft 101 kts 317°
2026-05-04 14:13 62.42724 25.62617 1221 ft 119 kts 320°
2026-05-04 14:13 62.43435 25.61572 1226 ft 128 kts 321°
2026-05-04 14:13 62.44151 25.60529 1380 ft 124 kts 315°
2026-05-04 14:14 62.44868 25.59314 1381 ft 136 kts 319°
2026-05-04 14:14 62.46873 25.58568 1217 ft 145 kts 359°
2026-05-04 14:14 62.47836 25.58691 1275 ft 131 kts 359°
2026-05-04 14:15 62.49721 25.58873 1166 ft 135 kts 358°
2026-05-04 14:15 62.51613 25.59079 1095 ft 130 kts 356°
2026-05-04 14:16 62.53398 25.59507 1085 ft 132 kts
2026-05-04 14:16 62.54306 25.59820 1026 ft 132 kts
2026-05-04 14:17 62.56098 25.60016 995 ft 126 kts 352°
2026-05-04 14:17 62.56950 25.59959 1084 ft 120 kts 353°
2026-05-04 14:17 62.58614 25.60136 1177 ft 123 kts
2026-05-04 14:18 62.59489 25.60342 1129 ft 129 kts
2026-05-04 14:18 62.61247 25.61388 1120 ft 130 kts 18°
2026-05-04 14:19 62.62739 25.63189 1340 ft 122 kts 32°
2026-05-04 14:19 62.63354 25.64416 1454 ft 120 kts 54°
2026-05-04 14:19 62.63669 25.66041 1593 ft 114 kts 83°
2026-05-04 14:19 62.63647 25.67732 1545 ft 122 kts 108°
2026-05-04 14:20 62.63112 25.69277 1350 ft 130 kts 147°
2026-05-04 14:20 62.62410 25.70268 1442 ft 121 kts 153°
2026-05-04 14:20 62.61668 25.71226 1392 ft 125 kts 159°
2026-05-04 14:21 62.60201 25.73138 1500 ft 120 kts 151°
2026-05-04 14:21 62.59552 25.74349 1427 ft 130 kts 136°
2026-05-04 14:21 62.58962 25.75869 1394 ft 128 kts 132°
2026-05-04 14:21 62.58438 25.77426 1395 ft 129 kts 129°
2026-05-04 14:22 62.57928 25.79023 1311 ft 131 kts 128°
2026-05-04 14:22 62.57423 25.80697 1223 ft 132 kts 127°
2026-05-04 14:22 62.56968 25.82398 1155 ft 130 kts 124°
2026-05-04 14:22 62.56548 25.84104 1097 ft 126 kts 124°
2026-05-04 14:23 62.55669 25.87392 1049 ft 128 kts 124°
2026-05-04 14:23 62.55277 25.89161 994 ft 130 kts 113°
2026-05-04 14:23 62.54971 25.90950 950 ft 119 kts 116°
2026-05-04 14:24 62.54732 25.92586 1023 ft 110 kts 107°
2026-05-04 14:24 62.54533 25.94155 1151 ft 105 kts 115°
2026-05-04 14:24 62.54279 25.95648 1278 ft 107 kts 114°
2026-05-04 14:24 62.54040 25.97190 1390 ft 110 kts 115°
2026-05-04 14:25 62.53752 25.98750 1424 ft 113 kts 122°
2026-05-04 14:25 62.52950 26.01876 1377 ft 126 kts 123°
2026-05-04 14:25 62.52541 26.03564 1352 ft 128 kts 124°
2026-05-04 14:26 62.52134 26.05309 1246 ft 131 kts 122°
2026-05-04 14:26 62.51851 26.06435 1256 ft 127 kts 122°
2026-05-04 14:26 62.51423 26.08109 1271 ft 127 kts 128°
2026-05-04 14:26 62.50955 26.09718 1214 ft 126 kts 128°
2026-05-04 14:27 62.50481 26.11305 1176 ft 124 kts 127°
2026-05-04 14:27 62.49800 26.13255 1184 ft 124 kts 136°
2026-05-04 14:27 62.49395 26.14158 1161 ft 124 kts 141°
2026-05-04 14:27 62.48464 26.15474 1145 ft 119 kts 166°
2026-05-04 14:28 62.47922 26.15634 1165 ft 115 kts 182°
2026-05-04 14:28 62.47136 26.15504 1221 ft 108 kts 192°
2026-05-04 14:28 62.46413 26.15261 1290 ft 108 kts 193°
2026-05-04 14:28 62.45667 26.14985 1271 ft 109 kts 193°
2026-05-04 14:29 62.44209 26.13983 1205 ft 116 kts 211°
2026-05-04 14:29 62.42895 26.12029 1165 ft 112 kts 217°
2026-05-04 14:30 62.42299 26.10939 1138 ft 113 kts 220°
2026-05-04 14:30 62.41703 26.09797 1081 ft 114 kts 222°
2026-05-04 14:30 62.40550 26.07529 884 ft 114 kts 224°
2026-05-04 14:31 62.39973 26.06370 812 ft 115 kts 227°
2026-05-04 14:31 62.39308 26.03519 908 ft 94 kts 251°
2026-05-04 14:32 62.38771 26.00918 1011 ft 100 kts 241°
2026-05-04 14:32 62.38128 26.00568 981 ft 115 kts 155°
2026-05-04 14:32 62.37875 26.02174 943 ft 129 kts 71°
2026-05-04 14:32 62.38537 26.03251 1061 ft 119 kts 359°
2026-05-04 14:33 62.39239 26.02518 1052 ft 117 kts 301°
2026-05-04 14:33 62.39418 26.00924 1047 ft 111 kts 259°
2026-05-04 14:33 62.39123 25.99394 1074 ft 105 kts 237°
2026-05-04 14:33 62.38639 25.98187 1130 ft 109 kts 223°
2026-05-04 14:34 62.38064 25.97164 1233 ft 105 kts 220°
2026-05-04 14:34 62.37471 25.96217 1290 ft 106 kts 218°
2026-05-04 14:34 62.36929 25.95095 1198 ft 111 kts 231°
2026-05-04 14:34 62.36374 25.93835 1041 ft 117 kts 238°
2026-05-04 14:35 62.36083 25.92291 1138 ft 108 kts 253°
2026-05-04 14:35 62.35940 25.90717 1215 ft 106 kts 260°
2026-05-04 14:35 62.35853 25.89169 1262 ft 104 kts 265°
2026-05-04 14:35 62.35810 25.87592 1311 ft 106 kts 259°
2026-05-04 14:36 62.35735 25.85980 1299 ft 111 kts 262°
2026-05-04 14:36 62.35749 25.84316 1355 ft 109 kts 275°
2026-05-04 14:36 62.35856 25.82662 1321 ft 114 kts 272°
2026-05-04 14:36 62.36010 25.80918 1203 ft 119 kts 283°
2026-05-04 14:37 62.36226 25.79292 1270 ft 108 kts 280°
2026-05-04 14:37 62.36445 25.77747 1211 ft 106 kts 283°
2026-05-04 14:37 62.36703 25.76249 1138 ft 107 kts 287°
2026-05-04 14:37 62.37024 25.74903 1044 ft 96 kts 297°
2026-05-04 14:38 62.37397 25.73772 913 ft 88 kts 298°
2026-05-04 14:38 62.37750 25.72828 794 ft 75 kts 304°
2026-05-04 14:38 62.38084 25.72036 702 ft 72 kts 308°
2026-05-04 14:38 62.38430 25.71337 674 ft 73 kts 301°
2026-05-04 14:39 62.38765 25.70481 590 ft 76 kts 306°
2026-05-04 14:39 62.39109 25.69715 492 ft 68 kts 304°
2026-05-04 14:39 62.39421 25.69002 429 ft 63 kts 308°
2026-05-04 14:40 62.39870 25.67989 453 ft 33 kts 317°
2026-05-04 14:40 62.40015 25.67667 460 ft 26 kts 309°
2026-05-04 14:40 62.40067 25.67440 460 ft 17 kts 259°
2026-05-04 14:40 62.40000 25.67252 464 ft 13 kts 229°
2026-05-04 14:41 62.40017 25.67101 464 ft 13 kts 313°
2026-05-04 14:41 62.40092 25.66928 463 ft 19 kts 311°
2026-05-04 14:41 62.40317 25.66432 463 ft 26 kts 315°
2026-05-04 14:42 62.40326 25.66014 460 ft 19 kts 225°
2026-05-04 14:42 62.40225 25.65807 459 ft 19 kts 223°
2026-05-04 14:42 62.40176 25.65723 461 ft 6 kts 223°
2026-05-04 14:43 62.40163 25.65659 463 ft 3 kts 310°
2026-05-04 14:43 62.40190 25.65614 463 ft 3 kts 335°
2026-05-04 14:43 62.40205 25.65637 462 ft 7 kts 57°
2026-05-04 14:43 62.40208 25.65648 462 ft 0 kts 46°